createdAt,value
2019-03-28T00:03:19.696Z,44.00
2019-03-28T00:06:43.465Z,48.20
2019-03-28T00:10:07.363Z,42.10
2019-03-28T00:13:31.234Z,43.50
2019-03-28T00:16:55.155Z,44.60
2019-03-28T00:20:18.979Z,40.53
2019-03-28T00:23:44.696Z,42.07
2019-03-28T00:27:08.594Z,38.07
2019-03-28T00:30:32.444Z,42.13
2019-03-28T00:33:56.413Z,42.40
2019-03-28T00:37:20.246Z,42.37
2019-03-28T00:40:44.200Z,40.23
2019-03-28T00:44:08.000Z,36.90
2019-03-28T00:47:31.883Z,41.93
2019-03-28T00:50:55.874Z,38.30
2019-03-28T00:54:19.753Z,45.13
2019-03-28T00:57:44.084Z,41.57
2019-03-28T01:01:08.032Z,43.67
2019-03-28T01:04:31.793Z,42.37
2019-03-28T01:07:55.483Z,44.00
2019-03-28T01:11:19.336Z,43.43
2019-03-28T01:14:43.124Z,43.47
2019-03-28T01:18:06.877Z,44.70
2019-03-28T01:21:30.795Z,47.07
2019-03-28T01:24:57.644Z,47.50
2019-03-28T01:28:20.186Z,58.57
2019-03-28T01:31:43.979Z,48.57
2019-03-28T01:35:07.953Z,41.53
2019-03-28T01:38:31.793Z,45.53
2019-03-28T01:41:55.648Z,41.77
2019-03-28T01:45:19.491Z,47.50
2019-03-28T01:48:43.574Z,42.57
2019-03-28T01:52:07.771Z,43.57
2019-03-28T01:55:31.543Z,45.27
2019-03-28T01:58:55.470Z,46.00
2019-03-28T02:02:19.205Z,45.73
2019-03-28T02:05:43.358Z,46.37
2019-03-28T02:09:07.309Z,52.30
2019-03-28T02:12:31.599Z,53.37
2019-03-28T02:15:55.431Z,52.53
2019-03-28T02:19:19.588Z,45.83
2019-03-28T02:22:43.503Z,47.77
2019-03-28T02:26:07.628Z,48.50
2019-03-28T02:29:31.791Z,48.87
2019-03-28T02:32:55.685Z,52.07
2019-03-28T02:36:20.103Z,46.93
2019-03-28T02:39:43.847Z,51.73
2019-03-28T02:43:07.653Z,52.20
2019-03-28T02:46:40.417Z,51.77
2019-03-28T02:50:06.424Z,56.83
2019-03-28T02:53:30.356Z,63.27
2019-03-28T02:56:54.294Z,64.10
2019-03-28T03:00:18.487Z,72.67
2019-03-28T03:03:42.545Z,75.10
2019-03-28T03:07:06.364Z,73.50
2019-03-28T03:10:30.133Z,79.20
2019-03-28T03:13:53.915Z,80.23
2019-03-28T03:17:18.575Z,92.77
2019-03-28T03:20:43.579Z,91.20
2019-03-28T03:24:08.046Z,83.27
2019-03-28T03:27:32.027Z,96.60
2019-03-28T03:30:55.910Z,95.00
2019-03-28T03:34:19.619Z,90.17
2019-03-28T03:37:43.435Z,89.73
2019-03-28T03:41:07.200Z,100.90
2019-03-28T03:44:31.021Z,97.03
2019-03-28T03:47:54.831Z,104.23
2019-03-28T03:51:18.625Z,90.30
2019-03-28T03:54:42.479Z,107.63
2019-03-28T03:58:15.652Z,99.57
2019-03-28T04:01:31.688Z,98.87
2019-03-28T04:04:56.874Z,100.07
2019-03-28T04:08:20.926Z,110.87
2019-03-28T04:11:44.704Z,104.03
2019-03-28T04:15:08.921Z,101.47
2019-03-28T04:18:32.863Z,109.27
2019-03-28T04:21:56.790Z,110.10
2019-03-28T04:25:20.752Z,123.53
2019-03-28T04:28:45.356Z,115.53
2019-03-28T04:32:09.314Z,107.60
2019-03-28T04:35:33.386Z,110.00
2019-03-28T04:38:57.067Z,126.33
2019-03-28T04:42:20.952Z,116.37
2019-03-28T04:45:44.699Z,123.53
2019-03-28T04:49:08.459Z,110.73
2019-03-28T04:52:32.403Z,107.60
2019-03-28T04:55:56.197Z,105.07
2019-03-28T04:59:19.993Z,111.20
2019-03-28T05:02:46.037Z,126.27
2019-03-28T05:06:09.327Z,154.03
2019-03-28T05:09:33.113Z,128.03
2019-03-28T05:12:56.997Z,123.43
2019-03-28T05:16:20.893Z,123.37
2019-03-28T05:19:44.808Z,135.83
2019-03-28T05:23:08.643Z,122.63
2019-03-28T05:26:32.624Z,124.50
2019-03-28T05:29:56.369Z,135.40
2019-03-28T05:33:20.181Z,113.20
2019-03-28T05:36:44.582Z,119.40
2019-03-28T05:40:08.819Z,111.10
2019-03-28T05:43:32.811Z,112.17
2019-03-28T05:46:56.635Z,109.73
2019-03-28T05:50:20.512Z,99.17
2019-03-28T05:53:44.600Z,101.93
2019-03-28T05:57:08.419Z,106.70
2019-03-28T06:00:32.398Z,104.70
2019-03-28T06:03:56.240Z,116.40
2019-03-28T06:07:22.895Z,107.87
2019-03-28T06:10:49.428Z,92.63
2019-03-28T06:14:16.003Z,102.53
2019-03-28T06:17:40.534Z,92.43
2019-03-28T06:21:04.306Z,94.83
2019-03-28T06:24:29.982Z,98.10
2019-03-28T06:27:54.848Z,85.10
2019-03-28T06:31:19.066Z,90.47
2019-03-28T06:34:43.485Z,90.87
2019-03-28T06:38:07.682Z,88.80
2019-03-28T06:41:31.534Z,85.30
2019-03-28T06:44:55.390Z,76.00
2019-03-28T06:48:19.264Z,75.93
2019-03-28T06:51:43.019Z,75.97
2019-03-28T06:55:07.514Z,76.27
2019-03-28T06:58:31.349Z,74.93
2019-03-28T07:01:55.264Z,70.93
2019-03-28T07:05:19.344Z,72.43
2019-03-28T07:08:43.042Z,64.77
2019-03-28T07:12:06.829Z,62.80
2019-03-28T07:15:30.627Z,71.63
2019-03-28T07:18:54.519Z,64.77
2019-03-28T07:22:18.285Z,68.47
2019-03-28T07:25:42.082Z,66.43
2019-03-28T07:29:05.890Z,67.63
2019-03-28T07:32:29.726Z,64.00
2019-03-28T07:35:53.518Z,66.43
2019-03-28T07:39:19.169Z,65.47
2019-03-28T07:42:42.843Z,63.20
2019-03-28T07:46:06.545Z,63.40
2019-03-28T07:49:30.263Z,64.93
2019-03-28T07:52:54.103Z,63.70
2019-03-28T07:56:17.923Z,65.20
2019-03-28T07:59:44.077Z,64.53
2019-03-28T08:03:07.215Z,61.33
2019-03-28T08:06:31.095Z,61.37
2019-03-28T08:09:54.864Z,56.00
2019-03-28T08:13:18.577Z,53.77
2019-03-28T08:16:42.341Z,48.60
2019-03-28T08:20:09.079Z,61.87
2019-03-28T08:23:35.375Z,40.77
2019-03-28T08:26:58.570Z,33.90
2019-03-28T08:30:25.446Z,32.10
2019-03-28T08:33:49.449Z,29.53
2019-03-28T08:37:14.031Z,32.53
2019-03-28T08:40:40.292Z,31.17
2019-03-28T08:44:07.205Z,32.10
2019-03-28T08:47:29.751Z,31.73
2019-03-28T08:50:53.564Z,26.03
2019-03-28T08:54:17.517Z,20.27
2019-03-28T08:57:41.408Z,23.03
2019-03-28T09:01:06.052Z,28.90
2019-03-28T09:04:30.063Z,21.27
2019-03-28T09:07:53.792Z,16.27
2019-03-28T09:11:17.638Z,14.47
2019-03-28T09:14:41.488Z,11.57
2019-03-28T09:18:05.997Z,11.90
2019-03-28T09:21:29.927Z,13.10
2019-03-28T09:24:53.623Z,10.80
2019-03-28T09:28:17.446Z,11.60
2019-03-28T09:31:41.443Z,11.97
2019-03-28T09:35:07.202Z,11.50
2019-03-28T09:38:31.108Z,12.10
2019-03-28T09:41:54.962Z,12.17
2019-03-28T09:45:18.709Z,22.47
2019-03-28T09:48:42.511Z,10.77
2019-03-28T09:52:06.376Z,10.17
2019-03-28T09:55:30.138Z,10.87
2019-03-28T09:58:54.351Z,9.53
2019-03-28T10:02:18.121Z,12.03
2019-03-28T10:05:42.228Z,11.80
2019-03-28T10:09:07.256Z,12.53
2019-03-28T10:12:34.116Z,12.47
2019-03-28T10:15:57.487Z,15.03
2019-03-28T10:19:21.514Z,12.17
2019-03-28T10:22:45.414Z,14.87
2019-03-28T10:26:09.447Z,16.40
2019-03-28T10:29:33.259Z,14.50
2019-03-28T10:32:57.061Z,14.33
2019-03-28T10:36:20.868Z,17.37
2019-03-28T10:39:44.685Z,16.60
2019-03-28T10:43:08.586Z,21.23
2019-03-28T10:46:32.439Z,18.77
2019-03-28T10:49:56.358Z,20.90
2019-03-28T10:53:20.340Z,35.30
2019-03-28T10:56:51.707Z,21.43
2019-03-28T11:00:23.499Z,19.87
2019-03-28T11:03:36.244Z,16.87
2019-03-28T11:06:59.989Z,17.60
2019-03-28T11:10:23.841Z,16.37
2019-03-28T11:13:47.787Z,13.13
2019-03-28T11:17:11.566Z,11.63
2019-03-28T11:20:36.075Z,11.37
2019-03-28T11:24:00.847Z,15.57
2019-03-28T11:27:24.583Z,11.73
2019-03-28T11:30:48.364Z,12.43
2019-03-28T11:34:12.338Z,13.30
2019-03-28T11:37:36.912Z,10.23
2019-03-28T11:41:00.724Z,10.90
2019-03-28T11:44:24.600Z,10.97
2019-03-28T11:47:48.576Z,12.60
2019-03-28T11:51:12.326Z,11.97
2019-03-28T11:54:36.239Z,14.57
2019-03-28T11:58:00.122Z,14.27
2019-03-28T12:01:23.969Z,10.10
2019-03-28T12:04:47.850Z,14.70
2019-03-28T12:08:11.724Z,11.87
2019-03-28T12:11:35.576Z,12.80
2019-03-28T12:14:59.414Z,23.27
2019-03-28T12:18:25.106Z,32.33
2019-03-28T12:21:48.764Z,13.60
2019-03-28T12:25:12.621Z,20.23
2019-03-28T12:28:36.447Z,16.07
2019-03-28T12:32:13.101Z,11.43
2019-03-28T12:35:25.756Z,11.33
2019-03-28T12:38:49.494Z,17.23
2019-03-28T12:42:13.442Z,26.47
2019-03-28T12:45:37.272Z,9.23
2019-03-28T12:49:01.091Z,11.10
2019-03-28T12:52:24.939Z,10.73
2019-03-28T12:55:48.851Z,9.90
2019-03-28T12:59:12.651Z,10.00
2019-03-28T13:02:36.368Z,9.53
2019-03-28T13:06:00.093Z,11.17
2019-03-28T13:09:24.183Z,9.57
2019-03-28T13:12:48.021Z,8.20
2019-03-28T13:16:11.840Z,11.57
2019-03-28T13:19:35.607Z,10.30
2019-03-28T13:22:59.465Z,9.47
2019-03-28T13:26:23.261Z,8.20
2019-03-28T13:29:47.080Z,9.83
2019-03-28T13:33:10.991Z,10.73
2019-03-28T13:36:35.006Z,12.47
2019-03-28T13:39:59.335Z,10.17
2019-03-28T13:43:24.151Z,11.10
2019-03-28T13:46:48.039Z,15.07
2019-03-28T13:50:12.674Z,21.40
2019-03-28T13:53:39.896Z,13.27
2019-03-28T13:57:02.059Z,14.07
2019-03-28T14:00:31.279Z,18.17
2019-03-28T14:03:55.108Z,11.73
2019-03-28T14:07:18.927Z,11.70
2019-03-28T14:10:42.831Z,11.47
2019-03-28T14:14:06.574Z,12.10
2019-03-28T14:17:30.551Z,10.40
2019-03-28T14:20:54.452Z,9.37
2019-03-28T14:24:19.596Z,8.03
2019-03-28T14:27:43.484Z,9.23
2019-03-28T14:31:07.593Z,8.63
2019-03-28T14:34:31.658Z,11.17
2019-03-28T14:37:56.290Z,15.83
2019-03-28T14:41:20.091Z,11.47
2019-03-28T14:44:43.991Z,23.00
2019-03-28T14:48:08.871Z,13.27
2019-03-28T14:51:32.666Z,58.83
2019-03-28T14:54:56.545Z,15.00
2019-03-28T14:58:22.113Z,10.37
2019-03-28T15:01:46.276Z,9.27
2019-03-28T15:05:10.439Z,11.67
2019-03-28T15:08:34.376Z,14.73
2019-03-28T15:11:58.410Z,10.90
2019-03-28T15:15:24.462Z,9.73
2019-03-28T15:18:48.339Z,17.10
2019-03-28T15:22:12.231Z,13.40
2019-03-28T15:25:36.396Z,10.20
2019-03-28T15:29:00.257Z,11.63
2019-03-28T15:32:24.168Z,8.43
2019-03-28T15:35:48.067Z,12.33
2019-03-28T15:39:11.928Z,11.20
2019-03-28T15:42:37.785Z,10.67
2019-03-28T15:46:01.638Z,15.73
2019-03-28T15:49:26.451Z,14.53
2019-03-28T15:52:50.421Z,10.07
2019-03-28T15:56:15.878Z,13.70
2019-03-28T15:59:39.803Z,13.83
2019-03-28T16:03:04.149Z,9.90
2019-03-28T16:06:27.954Z,24.30
2019-03-28T16:09:54.557Z,24.57
2019-03-28T16:13:22.544Z,19.20
2019-03-28T16:16:45.734Z,15.43
2019-03-28T16:20:10.549Z,13.40
2019-03-28T16:23:34.331Z,10.53
2019-03-28T16:26:58.059Z,8.33
2019-03-28T16:30:38.493Z,12.97
2019-03-28T16:34:07.445Z,8.63
2019-03-28T16:37:32.326Z,16.43
2019-03-28T16:40:56.253Z,13.23
2019-03-28T16:44:22.100Z,9.10
2019-03-28T16:47:46.196Z,6.80
2019-03-28T16:51:10.062Z,12.90
2019-03-28T16:54:33.956Z,16.10
2019-03-28T16:57:57.753Z,21.47
2019-03-28T17:01:21.642Z,21.03
2019-03-28T17:04:45.445Z,20.83
2019-03-28T17:08:09.467Z,17.67
2019-03-28T17:11:33.447Z,27.10
2019-03-28T17:14:57.414Z,16.47
2019-03-28T17:18:21.193Z,19.20
2019-03-28T17:21:45.183Z,16.37
2019-03-28T17:25:09.535Z,18.97
2019-03-28T17:28:33.486Z,14.67
2019-03-28T17:31:57.351Z,21.80
2019-03-28T17:35:21.244Z,17.77
2019-03-28T17:38:45.130Z,21.77
2019-03-28T17:42:09.244Z,24.30
2019-03-28T17:45:33.166Z,21.60
2019-03-28T17:48:57.721Z,19.67
2019-03-28T17:52:21.866Z,78.00
2019-03-28T17:55:46.771Z,34.37
2019-03-28T17:59:11.170Z,23.77
2019-03-28T18:02:38.469Z,39.90
2019-03-28T18:06:02.447Z,24.70
2019-03-28T18:09:27.404Z,35.03
2019-03-28T18:12:51.442Z,37.07
2019-03-28T18:16:15.240Z,37.30
2019-03-28T18:19:39.181Z,38.27
2019-03-28T18:23:03.274Z,41.83
2019-03-28T18:26:28.283Z,45.37
2019-03-28T18:29:52.188Z,82.93
2019-03-28T18:33:16.305Z,85.27
2019-03-28T18:36:40.147Z,65.60
2019-03-28T18:40:07.944Z,57.33
2019-03-28T18:43:32.972Z,53.17
2019-03-28T18:46:56.951Z,63.60
2019-03-28T18:50:21.077Z,68.87
2019-03-28T18:53:44.975Z,57.97
2019-03-28T18:57:09.253Z,67.37
2019-03-28T19:00:33.209Z,72.93
2019-03-28T19:03:57.107Z,76.43
2019-03-28T19:07:21.063Z,83.13
2019-03-28T19:10:45.163Z,83.77
2019-03-28T19:14:09.026Z,85.20
2019-03-28T19:17:33.979Z,79.43
2019-03-28T19:20:57.933Z,85.60
2019-03-28T19:24:22.038Z,82.57
2019-03-28T19:27:46.042Z,129.33
2019-03-28T19:31:10.274Z,93.13
2019-03-28T19:34:34.193Z,76.87
2019-03-28T19:37:58.385Z,86.73
2019-03-28T19:41:22.633Z,75.87
2019-03-28T19:44:46.647Z,105.07
2019-03-28T19:48:10.632Z,87.43
2019-03-28T19:51:34.488Z,75.53
2019-03-28T19:54:58.500Z,74.40
2019-03-28T19:58:22.482Z,87.63
2019-03-28T20:01:46.355Z,85.27
2019-03-28T20:05:10.537Z,81.40
2019-03-28T20:08:34.514Z,72.30
2019-03-28T20:12:02.968Z,64.20
2019-03-28T20:15:24.315Z,70.50
2019-03-28T20:18:48.193Z,67.53
2019-03-28T20:22:13.629Z,79.33
2019-03-28T20:25:39.145Z,65.07
2019-03-28T20:29:03.548Z,59.83
2019-03-28T20:32:27.497Z,63.60
2019-03-28T20:36:11.862Z,68.80
2019-03-28T20:39:16.913Z,61.13
2019-03-28T20:42:40.810Z,65.73
2019-03-28T20:46:04.965Z,85.40
2019-03-28T20:49:28.966Z,70.23
2019-03-28T20:52:52.929Z,65.83
2019-03-28T20:56:17.754Z,69.83
2019-03-28T20:59:42.261Z,66.07
2019-03-28T21:03:06.232Z,65.57
2019-03-28T21:06:30.940Z,71.17
2019-03-28T21:09:55.045Z,67.40
2019-03-28T21:13:18.901Z,65.53
2019-03-28T21:16:42.803Z,69.73
2019-03-28T21:20:08.036Z,72.27
2019-03-28T21:23:32.905Z,71.97
2019-03-28T21:26:57.370Z,69.23
2019-03-28T21:30:21.545Z,72.63
2019-03-28T21:33:45.450Z,73.67
2019-03-28T21:37:09.528Z,71.23
2019-03-28T21:40:33.922Z,76.23
2019-03-28T21:43:57.735Z,78.37
2019-03-28T21:47:21.726Z,79.57
2019-03-28T21:50:45.602Z,77.63
2019-03-28T21:54:09.477Z,72.70
2019-03-28T21:57:33.358Z,75.73
2019-03-28T22:00:57.182Z,87.13
2019-03-28T22:04:22.006Z,81.97
2019-03-28T22:07:46.045Z,84.90
2019-03-28T22:11:09.886Z,82.70
2019-03-28T22:14:34.188Z,95.20
2019-03-28T22:17:57.935Z,102.27
2019-03-28T22:21:21.818Z,110.73
2019-03-28T22:24:45.893Z,116.50
2019-03-28T22:28:09.764Z,106.43
2019-03-28T22:31:33.591Z,92.97
2019-03-28T22:34:57.590Z,110.17
2019-03-28T22:38:21.345Z,143.93
2019-03-28T22:41:45.307Z,125.97
2019-03-28T22:45:09.663Z,123.43
2019-03-28T22:48:34.943Z,118.27
2019-03-28T22:51:58.829Z,117.00
2019-03-28T22:55:22.715Z,108.67
2019-03-28T22:58:46.672Z,135.23
2019-03-28T23:02:10.653Z,142.37
2019-03-28T23:05:34.581Z,182.70
2019-03-28T23:08:58.925Z,125.67
2019-03-28T23:12:22.779Z,127.63
2019-03-28T23:15:46.618Z,126.30
2019-03-28T23:19:12.403Z,132.70
2019-03-28T23:22:36.387Z,121.40
2019-03-28T23:26:00.153Z,122.17
2019-03-28T23:29:23.928Z,121.70
2019-03-28T23:32:47.732Z,137.03
2019-03-28T23:36:11.807Z,184.63
2019-03-28T23:39:35.818Z,164.10
2019-03-28T23:42:59.760Z,121.30
2019-03-28T23:46:23.540Z,117.27
2019-03-28T23:49:47.441Z,154.07
2019-03-28T23:53:11.183Z,271.30
2019-03-28T23:56:35.083Z,138.33
2019-03-28T23:59:58.826Z,145.67
